Terminal Aerodrome Forecast
Issued by NWS

Home | Current Version | Previous Version | Text Only | Print | Product List | Glossary On
Versions: 1 2 3 4 5 6 7 8 9 10 11 12 13 14 15 16 17 18 19 20 21 22 23 24 25
000
FTUS41 KBOX 272324
TAFHYA
TAF
KHYA 272324Z 2800/2824 22010KT P6SM FEW250
     FM280200 22009KT P6SM BKN050
     FM280500 26008KT P6SM -RA BKN050
     FM280900 28005KT P6SM SCT025
     FM281100 35006KT P6SM SCT035
     FM281300 01008KT P6SM SCT250=

USA.gov is the U.S. government's official web portal to all federal, state and local government web resources and services.